Islamabad, Pakistan
Current Conditions -  °F | °C
As of 11:00 AM on Sunday 26 Oct 2014 (Local Time) from OPRN Reporting Station
Few Clouds Few Clouds  
Wind Chill: 77°   Ceiling: Unl
Heat Index: 79°   Visibility: 5mi
Dew Point: 63°   Wind: 7mph
Humidity: 61%   Direction: 130°SE
Pressure: NA   Gusts: NA
Location:  33.72°N, 73.06°E
Report Text: OPRN 260600Z 13006KT 8000 FEW200 25/17 Q1020.8/30.14
Loading
Personal Weather Stations






























Interactive Weather Map
Tropical Storm Tracking
New forecast layout! Learn more

10-Day Weather Forecast

Advertisements
Track Severe Weather on mobile